Terminal Aerodrome Forecast
Issued by NWS

Home | Current Version | Previous Version | Text Only | Print | Product List | Glossary Off
Versions: 1 2 3 4 5 6 7 8 9 10 11 12 13 14 15 16 17

000
FTUS42 KMHX 251100
TAFPGV
TAF
KPGV 251121Z 2512/2612 26004KT P6SM VCSH SCT005 BKN015 BKN020
     FM251600 33007KT 5SM BR VCSH OVC015
     FM251900 35004KT 4SM -RA BR OVC010
     FM260200 04004KT 4SM -RA BR OVC005
      AMD LTD TO CLD VIS AND WIND=

USA.gov is the U.S. government's official web portal to all federal, state and local government web resources and services.